26/10/2019 - Vivint Smart Home Arena, Salt Lake City, UT. Temporada Regular

Utah Jazz - 113

Sacramento Kings - 81

  • Árbitros: Scott Foster,Brian Forte,Justin Van Duyne
  • Asistencia: 18306 espectadores
  • Duración del partido: 2:03 horas
  • Número de empates durante el partido: 0
  • Cambios de líder: 3 veces

Mejores Valoración

Tabla estadísticas

Sacramento Kings - 81
Jugador Min TC T3 TL +/- rebO rebD reb asis fp rob per tap tr Val ptos
Justin James 7:25 2/6 0/2 1/2 3 0 1 1 0 0 0 0 1 0 2 5
Caleb Swanigan 4:42 0/1 0/0 0/0 -2 0 2 2 0 1 0 0 1 0 2 0
Dewayne Dedmon 28:01 3/8 2/5 3/3 -24 2 4 6 0 3 0 7 1 0 6 11
Cory Joseph 25:00 4/10 0/0 0/0 -10 1 0 1 2 3 1 2 0 0 4 8
Bogdan Bogdanovic 24:20 3/7 1/3 3/4 -18 0 2 2 2 2 0 0 0 0 9 10
Trevor Ariza 23:34 0/2 0/2 0/0 -1 1 4 5 0 2 1 0 0 0 4 0
Harrison Barnes 21:56 3/5 0/0 1/1 -32 0 3 3 1 1 1 0 0 0 10 7
Wenyen Gabriel 20:39 3/9 1/4 1/1 0 1 2 3 3 1 0 0 0 0 8 8
De'Aaron Fox 20:00 3/9 1/3 2/2 -27 0 1 1 5 1 1 3 0 0 7 9
Buddy Hield 20:00 1/7 1/3 0/0 -29 0 2 2 0 0 0 1 0 0 -2 3
Nemanja Bjelica 16:53 3/5 1/2 0/0 -17 1 2 3 1 3 0 1 0 0 8 7
Richaun Holmes 15:17 3/5 0/0 0/0 -6 0 1 1 1 2 1 2 0 0 5 6
Yogi Ferrell 12:11 2/7 0/2 3/4 3 0 1 1 1 0 0 1 0 0 2 7
Total / / / -160 65
Utah Jazz - 113
Jugador Min TC T3 TL +/- rebO rebD reb asis fp rob per tap tr Val ptos
Stanton Kidd 7:25 0/2 0/1 0/0 -3 0 2 2 0 1 0 2 0 0 -2 0
Tony Bradley 4:42 2/2 0/0 2/3 2 0 2 2 0 1 0 1 0 0 6 6
Nigel Williams-Goss 4:42 0/1 0/1 0/0 2 0 0 0 1 1 0 0 0 0 0 0
Donovan Mitchell 25:35 6/9 3/3 0/0 36 0 1 1 4 1 1 1 0 0 17 15
Joe Ingles 25:27 2/5 2/5 2/2 10 0 4 4 3 1 3 1 0 0 14 8
Rudy Gobert 25:03 3/3 0/0 0/0 16 1 5 6 2 3 0 4 1 0 11 6
Bojan Bogdanovic 24:19 10/18 5/9 1/1 32 0 4 4 1 3 1 1 0 0 23 26
Mike Conley 24:12 5/11 2/6 0/0 26 0 3 3 8 1 0 2 0 0 15 12
Emmanuel Mudiay 23:48 4/11 0/3 2/2 6 1 3 4 4 4 0 4 0 0 7 10
Royce O'Neale 22:57 3/3 1/1 0/0 17 0 4 4 3 3 1 2 0 0 13 7
Ed Davis 18:15 1/1 0/0 0/2 14 0 7 7 0 2 0 1 0 0 6 2
Jeff Green 18:05 3/5 3/4 0/2 1 0 3 3 1 1 0 1 0 0 8 9
Georges Niang 15:30 5/7 2/4 0/0 1 0 3 3 1 0 0 1 0 0 13 12
Total / / / 160 131



temporada 201920

Calendario por equipos

Selecciona equipo NBA y tipo partidos

enfrentamientos equipos

Selecciona enfrentamiento equipos NBA